sensor_id;sensor_type;location;lat;lon;timestamp;P1;durP1;ratioP1;P2;durP2;ratioP2
479;SDS011;226;48.606;9.096;2023-05-29T00:02:20;7.47;;;4.10;;
479;SDS011;226;48.606;9.096;2023-05-29T00:04:50;8.10;;;4.70;;
479;SDS011;226;48.606;9.096;2023-05-29T00:07:18;9.43;;;3.23;;
479;SDS011;226;48.606;9.096;2023-05-29T00:09:46;10.73;;;4.53;;
479;SDS011;226;48.606;9.096;2023-05-29T00:12:14;7.57;;;3.63;;
479;SDS011;226;48.606;9.096;2023-05-29T00:14:42;4.40;;;3.40;;
479;SDS011;226;48.606;9.096;2023-05-29T00:17:10;9.20;;;4.40;;
479;SDS011;226;48.606;9.096;2023-05-29T00:19:42;8.90;;;5.43;;
479;SDS011;226;48.606;9.096;2023-05-29T00:22:12;6.70;;;4.10;;
479;SDS011;226;48.606;9.096;2023-05-29T00:24:40;7.43;;;4.00;;
479;SDS011;226;48.606;9.096;2023-05-29T00:27:08;6.73;;;4.90;;
479;SDS011;226;48.606;9.096;2023-05-29T00:29:36;11.83;;;4.57;;
479;SDS011;226;48.606;9.096;2023-05-29T00:32:05;11.23;;;4.73;;
479;SDS011;226;48.606;9.096;2023-05-29T00:34:33;8.50;;;4.60;;
479;SDS011;226;48.606;9.096;2023-05-29T00:37:01;7.00;;;4.63;;
479;SDS011;226;48.606;9.096;2023-05-29T00:39:31;10.93;;;3.50;;
479;SDS011;226;48.606;9.096;2023-05-29T00:41:59;4.43;;;3.63;;
479;SDS011;226;48.606;9.096;2023-05-29T00:44:27;16.23;;;5.23;;
479;SDS011;226;48.606;9.096;2023-05-29T00:46:56;13.83;;;3.63;;
479;SDS011;226;48.606;9.096;2023-05-29T00:49:25;10.03;;;3.83;;
479;SDS011;226;48.606;9.096;2023-05-29T00:51:53;6.67;;;4.33;;
479;SDS011;226;48.606;9.096;2023-05-29T00:54:23;5.80;;;3.90;;
479;SDS011;226;48.606;9.096;2023-05-29T00:56:55;8.57;;;4.00;;
479;SDS011;226;48.606;9.096;2023-05-29T00:59:25;6.50;;;3.67;;
479;SDS011;226;48.606;9.096;2023-05-29T01:01:55;7.03;;;3.57;;
479;SDS011;226;48.606;9.096;2023-05-29T01:04:25;13.23;;;4.00;;
479;SDS011;226;48.606;9.096;2023-05-29T01:06:54;9.00;;;4.40;;
479;SDS011;226;48.606;9.096;2023-05-29T01:09:23;8.63;;;4.57;;
479;SDS011;226;48.606;9.096;2023-05-29T01:11:54;12.43;;;5.20;;
479;SDS011;226;48.606;9.096;2023-05-29T01:14:31;11.27;;;5.20;;
479;SDS011;226;48.606;9.096;2023-05-29T01:17:06;8.10;;;4.73;;
479;SDS011;226;48.606;9.096;2023-05-29T01:19:46;13.80;;;4.87;;
479;SDS011;226;48.606;9.096;2023-05-29T01:22:40;9.63;;;4.77;;
479;SDS011;226;48.606;9.096;2023-05-29T01:25:23;9.73;;;3.60;;
479;SDS011;226;48.606;9.096;2023-05-29T01:27:58;7.70;;;4.20;;
479;SDS011;226;48.606;9.096;2023-05-29T01:30:31;8.33;;;3.63;;
479;SDS011;226;48.606;9.096;2023-05-29T01:33:01;5.63;;;4.20;;
479;SDS011;226;48.606;9.096;2023-05-29T01:35:30;14.60;;;4.50;;
479;SDS011;226;48.606;9.096;2023-05-29T01:37:58;8.23;;;4.20;;
479;SDS011;226;48.606;9.096;2023-05-29T01:40:26;7.83;;;3.73;;
479;SDS011;226;48.606;9.096;2023-05-29T01:42:55;7.83;;;3.30;;
479;SDS011;226;48.606;9.096;2023-05-29T01:45:24;12.70;;;4.87;;
479;SDS011;226;48.606;9.096;2023-05-29T01:47:53;6.43;;;4.20;;
479;SDS011;226;48.606;9.096;2023-05-29T01:50:22;11.63;;;4.90;;
479;SDS011;226;48.606;9.096;2023-05-29T01:52:51;6.03;;;3.57;;
479;SDS011;226;48.606;9.096;2023-05-29T01:55:20;7.07;;;3.87;;
479;SDS011;226;48.606;9.096;2023-05-29T01:57:48;8.80;;;4.90;;
479;SDS011;226;48.606;9.096;2023-05-29T02:00:17;11.23;;;4.30;;
479;SDS011;226;48.606;9.096;2023-05-29T02:02:47;12.30;;;4.27;;
479;SDS011;226;48.606;9.096;2023-05-29T02:05:15;6.80;;;4.30;;
479;SDS011;226;48.606;9.096;2023-05-29T02:07:43;6.13;;;3.83;;
479;SDS011;226;48.606;9.096;2023-05-29T02:10:12;8.13;;;4.40;;
479;SDS011;226;48.606;9.096;2023-05-29T02:12:41;6.30;;;3.57;;
479;SDS011;226;48.606;9.096;2023-05-29T02:15:09;8.30;;;4.67;;
479;SDS011;226;48.606;9.096;2023-05-29T02:17:38;10.90;;;4.00;;
479;SDS011;226;48.606;9.096;2023-05-29T02:20:09;9.00;;;3.97;;
479;SDS011;226;48.606;9.096;2023-05-29T02:22:38;11.87;;;4.03;;
479;SDS011;226;48.606;9.096;2023-05-29T02:25:06;7.17;;;4.00;;
479;SDS011;226;48.606;9.096;2023-05-29T02:27:34;10.60;;;4.10;;
479;SDS011;226;48.606;9.096;2023-05-29T02:30:03;4.40;;;3.70;;
479;SDS011;226;48.606;9.096;2023-05-29T02:32:32;9.63;;;3.57;;
479;SDS011;226;48.606;9.096;2023-05-29T02:35:01;7.00;;;3.83;;
479;SDS011;226;48.606;9.096;2023-05-29T02:37:30;7.67;;;4.73;;
479;SDS011;226;48.606;9.096;2023-05-29T02:39:58;5.50;;;3.67;;
479;SDS011;226;48.606;9.096;2023-05-29T02:42:26;11.43;;;4.37;;
479;SDS011;226;48.606;9.096;2023-05-29T02:44:54;12.83;;;4.67;;
479;SDS011;226;48.606;9.096;2023-05-29T02:47:22;12.43;;;4.20;;
479;SDS011;226;48.606;9.096;2023-05-29T02:49:51;7.17;;;4.63;;
479;SDS011;226;48.606;9.096;2023-05-29T02:52:19;9.53;;;4.13;;
479;SDS011;226;48.606;9.096;2023-05-29T02:54:50;11.63;;;4.00;;
479;SDS011;226;48.606;9.096;2023-05-29T02:57:20;10.90;;;4.03;;
479;SDS011;226;48.606;9.096;2023-05-29T02:59:48;15.90;;;5.20;;
479;SDS011;226;48.606;9.096;2023-05-29T03:02:16;5.60;;;3.70;;
479;SDS011;226;48.606;9.096;2023-05-29T03:04:45;3.90;;;3.20;;
479;SDS011;226;48.606;9.096;2023-05-29T03:07:16;6.97;;;4.10;;
479;SDS011;226;48.606;9.096;2023-05-29T03:09:44;3.80;;;3.50;;
479;SDS011;226;48.606;9.096;2023-05-29T03:12:14;6.50;;;3.67;;
479;SDS011;226;48.606;9.096;2023-05-29T03:14:43;8.40;;;4.17;;
479;SDS011;226;48.606;9.096;2023-05-29T03:17:11;7.50;;;4.00;;
479;SDS011;226;48.606;9.096;2023-05-29T03:19:40;9.33;;;5.60;;
479;SDS011;226;48.606;9.096;2023-05-29T03:22:08;8.60;;;4.30;;
479;SDS011;226;48.606;9.096;2023-05-29T03:24:36;8.43;;;3.07;;
479;SDS011;226;48.606;9.096;2023-05-29T03:27:04;10.63;;;3.90;;
479;SDS011;226;48.606;9.096;2023-05-29T03:29:34;14.70;;;4.80;;
479;SDS011;226;48.606;9.096;2023-05-29T03:32:02;6.60;;;3.50;;
479;SDS011;226;48.606;9.096;2023-05-29T03:34:30;13.60;;;3.77;;
479;SDS011;226;48.606;9.096;2023-05-29T03:36:58;7.83;;;3.90;;
479;SDS011;226;48.606;9.096;2023-05-29T03:39:27;8.67;;;4.63;;
479;SDS011;226;48.606;9.096;2023-05-29T03:41:55;5.50;;;3.60;;
479;SDS011;226;48.606;9.096;2023-05-29T03:44:23;3.27;;;2.97;;
479;SDS011;226;48.606;9.096;2023-05-29T03:46:52;5.13;;;3.43;;
479;SDS011;226;48.606;9.096;2023-05-29T03:49:21;15.63;;;4.90;;
479;SDS011;226;48.606;9.096;2023-05-29T03:51:49;8.93;;;4.23;;
479;SDS011;226;48.606;9.096;2023-05-29T03:54:17;8.03;;;4.50;;
479;SDS011;226;48.606;9.096;2023-05-29T03:56:46;7.00;;;4.00;;
479;SDS011;226;48.606;9.096;2023-05-29T03:59:14;9.20;;;3.67;;
479;SDS011;226;48.606;9.096;2023-05-29T04:01:42;9.43;;;4.40;;
479;SDS011;226;48.606;9.096;2023-05-29T04:04:11;12.80;;;5.80;;
479;SDS011;226;48.606;9.096;2023-05-29T04:06:39;9.93;;;4.60;;
479;SDS011;226;48.606;9.096;2023-05-29T04:09:07;6.80;;;3.93;;
479;SDS011;226;48.606;9.096;2023-05-29T04:11:36;9.77;;;5.23;;
479;SDS011;226;48.606;9.096;2023-05-29T04:14:05;7.70;;;4.63;;
479;SDS011;226;48.606;9.096;2023-05-29T04:16:33;5.10;;;4.30;;
479;SDS011;226;48.606;9.096;2023-05-29T04:19:01;7.00;;;3.73;;
479;SDS011;226;48.606;9.096;2023-05-29T04:21:31;9.27;;;4.30;;
479;SDS011;226;48.606;9.096;2023-05-29T04:24:00;11.93;;;4.90;;
479;SDS011;226;48.606;9.096;2023-05-29T04:26:28;6.03;;;3.53;;
479;SDS011;226;48.606;9.096;2023-05-29T04:28:59;5.23;;;3.30;;
479;SDS011;226;48.606;9.096;2023-05-29T04:31:27;9.60;;;4.10;;
479;SDS011;226;48.606;9.096;2023-05-29T04:33:55;8.80;;;6.20;;
479;SDS011;226;48.606;9.096;2023-05-29T04:36:23;10.23;;;4.00;;
479;SDS011;226;48.606;9.096;2023-05-29T04:38:54;10.40;;;3.73;;
479;SDS011;226;48.606;9.096;2023-05-29T04:41:23;6.30;;;3.80;;
479;SDS011;226;48.606;9.096;2023-05-29T04:43:55;4.97;;;3.60;;
479;SDS011;226;48.606;9.096;2023-05-29T04:46:24;9.30;;;4.43;;
479;SDS011;226;48.606;9.096;2023-05-29T04:48:53;7.90;;;4.30;;
479;SDS011;226;48.606;9.096;2023-05-29T04:51:22;18.33;;;4.17;;
479;SDS011;226;48.606;9.096;2023-05-29T04:53:51;8.90;;;4.60;;
479;SDS011;226;48.606;9.096;2023-05-29T04:56:20;9.20;;;3.93;;
479;SDS011;226;48.606;9.096;2023-05-29T04:58:49;5.93;;;3.97;;
479;SDS011;226;48.606;9.096;2023-05-29T05:01:18;5.43;;;3.63;;
479;SDS011;226;48.606;9.096;2023-05-29T05:03:48;10.17;;;4.23;;
479;SDS011;226;48.606;9.096;2023-05-29T05:06:16;4.37;;;3.80;;
479;SDS011;226;48.606;9.096;2023-05-29T05:08:45;24.50;;;4.77;;
479;SDS011;226;48.606;9.096;2023-05-29T05:11:13;6.77;;;4.20;;
479;SDS011;226;48.606;9.096;2023-05-29T05:13:43;6.93;;;4.30;;
479;SDS011;226;48.606;9.096;2023-05-29T05:16:11;8.93;;;4.30;;
479;SDS011;226;48.606;9.096;2023-05-29T05:18:40;6.93;;;4.30;;
479;SDS011;226;48.606;9.096;2023-05-29T05:21:08;11.00;;;4.40;;
479;SDS011;226;48.606;9.096;2023-05-29T05:23:37;8.93;;;4.23;;
479;SDS011;226;48.606;9.096;2023-05-29T05:26:08;13.30;;;6.00;;
479;SDS011;226;48.606;9.096;2023-05-29T05:28:37;7.83;;;4.10;;
479;SDS011;226;48.606;9.096;2023-05-29T05:31:07;11.63;;;5.00;;
479;SDS011;226;48.606;9.096;2023-05-29T05:33:35;8.40;;;4.87;;
479;SDS011;226;48.606;9.096;2023-05-29T05:36:04;11.53;;;4.47;;
479;SDS011;226;48.606;9.096;2023-05-29T05:38:33;9.07;;;4.83;;
479;SDS011;226;48.606;9.096;2023-05-29T05:41:01;13.90;;;4.57;;
479;SDS011;226;48.606;9.096;2023-05-29T05:43:29;8.87;;;4.40;;
479;SDS011;226;48.606;9.096;2023-05-29T05:45:58;6.17;;;3.87;;
479;SDS011;226;48.606;9.096;2023-05-29T05:48:28;7.77;;;4.00;;
479;SDS011;226;48.606;9.096;2023-05-29T05:50:56;4.90;;;3.60;;
479;SDS011;226;48.606;9.096;2023-05-29T05:53:24;6.90;;;3.90;;
479;SDS011;226;48.606;9.096;2023-05-29T05:55:53;7.60;;;4.30;;
479;SDS011;226;48.606;9.096;2023-05-29T05:58:22;6.23;;;4.20;;
479;SDS011;226;48.606;9.096;2023-05-29T06:00:50;9.30;;;4.50;;
479;SDS011;226;48.606;9.096;2023-05-29T06:03:19;5.83;;;3.97;;
479;SDS011;226;48.606;9.096;2023-05-29T06:05:49;9.90;;;5.70;;
479;SDS011;226;48.606;9.096;2023-05-29T06:08:18;8.90;;;4.80;;
479;SDS011;226;48.606;9.096;2023-05-29T06:10:47;12.07;;;4.73;;
479;SDS011;226;48.606;9.096;2023-05-29T06:13:15;6.40;;;4.23;;
479;SDS011;226;48.606;9.096;2023-05-29T06:15:44;5.47;;;3.80;;
479;SDS011;226;48.606;9.096;2023-05-29T06:18:12;11.63;;;4.60;;
479;SDS011;226;48.606;9.096;2023-05-29T06:20:41;6.57;;;3.73;;
479;SDS011;226;48.606;9.096;2023-05-29T06:23:10;7.23;;;4.27;;
479;SDS011;226;48.606;9.096;2023-05-29T06:25:39;18.10;;;4.50;;
479;SDS011;226;48.606;9.096;2023-05-29T06:28:08;7.97;;;4.20;;
479;SDS011;226;48.606;9.096;2023-05-29T06:30:36;14.13;;;4.70;;
479;SDS011;226;48.606;9.096;2023-05-29T06:33:04;16.53;;;5.10;;
479;SDS011;226;48.606;9.096;2023-05-29T06:35:33;8.57;;;4.23;;
479;SDS011;226;48.606;9.096;2023-05-29T06:38:01;6.80;;;4.00;;
479;SDS011;226;48.606;9.096;2023-05-29T06:40:31;8.07;;;3.40;;
479;SDS011;226;48.606;9.096;2023-05-29T06:43:00;6.33;;;3.57;;
479;SDS011;226;48.606;9.096;2023-05-29T06:45:28;9.47;;;3.83;;
479;SDS011;226;48.606;9.096;2023-05-29T06:47:56;5.40;;;3.73;;
479;SDS011;226;48.606;9.096;2023-05-29T06:50:25;4.93;;;3.20;;
479;SDS011;226;48.606;9.096;2023-05-29T06:52:53;14.40;;;5.07;;
479;SDS011;226;48.606;9.096;2023-05-29T06:55:22;5.13;;;3.57;;
479;SDS011;226;48.606;9.096;2023-05-29T06:57:51;7.60;;;3.57;;
479;SDS011;226;48.606;9.096;2023-05-29T07:00:20;5.27;;;3.63;;
479;SDS011;226;48.606;9.096;2023-05-29T07:02:49;9.33;;;4.60;;
479;SDS011;226;48.606;9.096;2023-05-29T07:05:17;9.00;;;4.00;;
479;SDS011;226;48.606;9.096;2023-05-29T07:07:46;6.60;;;3.10;;
479;SDS011;226;48.606;9.096;2023-05-29T07:10:14;4.57;;;3.33;;
479;SDS011;226;48.606;9.096;2023-05-29T07:12:43;7.13;;;3.53;;
479;SDS011;226;48.606;9.096;2023-05-29T07:15:12;6.90;;;4.03;;
479;SDS011;226;48.606;9.096;2023-05-29T07:17:41;6.40;;;3.60;;
479;SDS011;226;48.606;9.096;2023-05-29T07:20:10;8.00;;;4.40;;
479;SDS011;226;48.606;9.096;2023-05-29T07:22:39;4.07;;;3.13;;
479;SDS011;226;48.606;9.096;2023-05-29T07:25:08;5.63;;;4.03;;
479;SDS011;226;48.606;9.096;2023-05-29T07:27:36;8.00;;;4.30;;
479;SDS011;226;48.606;9.096;2023-05-29T07:30:05;5.57;;;3.63;;
479;SDS011;226;48.606;9.096;2023-05-29T07:32:35;30.73;;;7.00;;
479;SDS011;226;48.606;9.096;2023-05-29T07:35:04;6.80;;;3.50;;
479;SDS011;226;48.606;9.096;2023-05-29T07:37:33;4.60;;;3.50;;
479;SDS011;226;48.606;9.096;2023-05-29T07:40:02;5.43;;;3.47;;
479;SDS011;226;48.606;9.096;2023-05-29T07:42:32;9.37;;;3.87;;
479;SDS011;226;48.606;9.096;2023-05-29T07:45:01;5.47;;;3.10;;
479;SDS011;226;48.606;9.096;2023-05-29T07:47:29;11.37;;;3.70;;
479;SDS011;226;48.606;9.096;2023-05-29T07:49:59;6.37;;;3.33;;
479;SDS011;226;48.606;9.096;2023-05-29T07:55:14;5.57;;;2.97;;
479;SDS011;226;48.606;9.096;2023-05-29T07:58:19;6.90;;;3.30;;
479;SDS011;226;48.606;9.096;2023-05-29T08:04:08;6.33;;;2.83;;
479;SDS011;226;48.606;9.096;2023-05-29T08:06:38;7.13;;;3.57;;
479;SDS011;226;48.606;9.096;2023-05-29T08:09:42;6.30;;;3.20;;
479;SDS011;226;48.606;9.096;2023-05-29T08:12:17;8.07;;;4.17;;
479;SDS011;226;48.606;9.096;2023-05-29T08:14:54;6.13;;;3.63;;
479;SDS011;226;48.606;9.096;2023-05-29T08:23:59;9.07;;;4.03;;
479;SDS011;226;48.606;9.096;2023-05-29T08:30:09;14.57;;;4.23;;
479;SDS011;226;48.606;9.096;2023-05-29T08:37:47;10.53;;;3.90;;
479;SDS011;226;48.606;9.096;2023-05-29T08:40:17;5.33;;;3.30;;
479;SDS011;226;48.606;9.096;2023-05-29T08:42:47;11.37;;;4.47;;
479;SDS011;226;48.606;9.096;2023-05-29T08:45:18;4.30;;;3.50;;
479;SDS011;226;48.606;9.096;2023-05-29T08:47:49;10.40;;;4.10;;
479;SDS011;226;48.606;9.096;2023-05-29T08:50:30;7.80;;;3.77;;
479;SDS011;226;48.606;9.096;2023-05-29T08:52:58;5.93;;;3.57;;
479;SDS011;226;48.606;9.096;2023-05-29T08:55:28;4.07;;;3.60;;
479;SDS011;226;48.606;9.096;2023-05-29T08:57:56;8.93;;;4.47;;
479;SDS011;226;48.606;9.096;2023-05-29T09:00:24;11.43;;;4.83;;
479;SDS011;226;48.606;9.096;2023-05-29T09:02:55;10.33;;;3.60;;
479;SDS011;226;48.606;9.096;2023-05-29T09:05:25;7.07;;;3.83;;
479;SDS011;226;48.606;9.096;2023-05-29T09:07:55;6.40;;;3.33;;
479;SDS011;226;48.606;9.096;2023-05-29T09:10:24;6.83;;;3.77;;
479;SDS011;226;48.606;9.096;2023-05-29T09:12:54;8.53;;;4.77;;
479;SDS011;226;48.606;9.096;2023-05-29T09:15:22;12.10;;;4.20;;
479;SDS011;226;48.606;9.096;2023-05-29T09:17:51;7.93;;;3.30;;
479;SDS011;226;48.606;9.096;2023-05-29T09:20:20;6.77;;;3.90;;
479;SDS011;226;48.606;9.096;2023-05-29T09:22:54;8.60;;;4.63;;
479;SDS011;226;48.606;9.096;2023-05-29T09:25:23;8.30;;;3.70;;
479;SDS011;226;48.606;9.096;2023-05-29T09:27:57;7.33;;;4.10;;
479;SDS011;226;48.606;9.096;2023-05-29T09:30:34;9.87;;;4.40;;
479;SDS011;226;48.606;9.096;2023-05-29T09:33:04;5.87;;;3.60;;
479;SDS011;226;48.606;9.096;2023-05-29T09:35:33;10.00;;;4.40;;
479;SDS011;226;48.606;9.096;2023-05-29T09:38:03;7.10;;;3.90;;
479;SDS011;226;48.606;9.096;2023-05-29T09:40:32;6.20;;;3.20;;
479;SDS011;226;48.606;9.096;2023-05-29T09:43:03;11.67;;;4.33;;
479;SDS011;226;48.606;9.096;2023-05-29T09:45:37;8.63;;;4.23;;
479;SDS011;226;48.606;9.096;2023-05-29T09:48:07;6.30;;;3.60;;
479;SDS011;226;48.606;9.096;2023-05-29T09:50:35;8.80;;;3.70;;
479;SDS011;226;48.606;9.096;2023-05-29T09:53:04;7.93;;;3.83;;
479;SDS011;226;48.606;9.096;2023-05-29T09:55:45;6.53;;;3.43;;
479;SDS011;226;48.606;9.096;2023-05-29T09:58:16;8.00;;;3.23;;
479;SDS011;226;48.606;9.096;2023-05-29T10:00:45;4.93;;;3.30;;
479;SDS011;226;48.606;9.096;2023-05-29T10:03:15;6.60;;;3.03;;
479;SDS011;226;48.606;9.096;2023-05-29T10:05:47;9.10;;;4.87;;
479;SDS011;226;48.606;9.096;2023-05-29T10:08:17;7.00;;;3.63;;
479;SDS011;226;48.606;9.096;2023-05-29T10:10:47;7.20;;;3.63;;
479;SDS011;226;48.606;9.096;2023-05-29T10:13:22;8.53;;;3.47;;
479;SDS011;226;48.606;9.096;2023-05-29T10:15:54;7.10;;;4.17;;
479;SDS011;226;48.606;9.096;2023-05-29T10:18:24;9.80;;;4.10;;
479;SDS011;226;48.606;9.096;2023-05-29T10:20:59;6.20;;;4.07;;
479;SDS011;226;48.606;9.096;2023-05-29T10:23:29;6.67;;;3.77;;
479;SDS011;226;48.606;9.096;2023-05-29T10:26:01;15.00;;;3.67;;
479;SDS011;226;48.606;9.096;2023-05-29T10:28:35;6.93;;;3.30;;
479;SDS011;226;48.606;9.096;2023-05-29T10:31:08;6.03;;;3.17;;
479;SDS011;226;48.606;9.096;2023-05-29T10:33:47;5.20;;;3.60;;
479;SDS011;226;48.606;9.096;2023-05-29T10:36:25;6.13;;;3.67;;
479;SDS011;226;48.606;9.096;2023-05-29T10:38:58;8.40;;;3.87;;
479;SDS011;226;48.606;9.096;2023-05-29T10:41:31;5.90;;;3.53;;
479;SDS011;226;48.606;9.096;2023-05-29T10:44:02;6.57;;;3.77;;
479;SDS011;226;48.606;9.096;2023-05-29T10:49:29;5.07;;;2.90;;
479;SDS011;226;48.606;9.096;2023-05-29T10:51:58;6.60;;;2.77;;
479;SDS011;226;48.606;9.096;2023-05-29T10:54:27;3.67;;;2.60;;
479;SDS011;226;48.606;9.096;2023-05-29T10:57:07;4.83;;;3.00;;
479;SDS011;226;48.606;9.096;2023-05-29T10:59:38;8.10;;;2.80;;
479;SDS011;226;48.606;9.096;2023-05-29T11:02:06;4.27;;;2.70;;
479;SDS011;226;48.606;9.096;2023-05-29T11:04:35;5.10;;;3.33;;
479;SDS011;226;48.606;9.096;2023-05-29T11:07:03;6.90;;;3.17;;
479;SDS011;226;48.606;9.096;2023-05-29T11:09:35;9.63;;;3.20;;
479;SDS011;226;48.606;9.096;2023-05-29T11:12:10;3.63;;;2.80;;
479;SDS011;226;48.606;9.096;2023-05-29T11:14:47;6.03;;;2.70;;
479;SDS011;226;48.606;9.096;2023-05-29T11:17:34;4.60;;;3.07;;
479;SDS011;226;48.606;9.096;2023-05-29T11:20:16;5.13;;;2.97;;
479;SDS011;226;48.606;9.096;2023-05-29T11:23:00;4.93;;;2.80;;
479;SDS011;226;48.606;9.096;2023-05-29T11:25:32;13.17;;;3.60;;
479;SDS011;226;48.606;9.096;2023-05-29T11:28:01;4.67;;;2.97;;
479;SDS011;226;48.606;9.096;2023-05-29T11:30:45;4.53;;;3.37;;
479;SDS011;226;48.606;9.096;2023-05-29T11:33:19;5.50;;;2.93;;
479;SDS011;226;48.606;9.096;2023-05-29T11:35:54;6.20;;;2.80;;
479;SDS011;226;48.606;9.096;2023-05-29T11:38:24;11.63;;;3.20;;
479;SDS011;226;48.606;9.096;2023-05-29T11:40:53;5.57;;;3.50;;
479;SDS011;226;48.606;9.096;2023-05-29T11:43:22;5.67;;;3.07;;
479;SDS011;226;48.606;9.096;2023-05-29T11:45:53;4.73;;;3.17;;
479;SDS011;226;48.606;9.096;2023-05-29T11:48:21;7.07;;;3.10;;
479;SDS011;226;48.606;9.096;2023-05-29T11:50:50;5.73;;;3.23;;
479;SDS011;226;48.606;9.096;2023-05-29T11:53:19;7.70;;;3.13;;
479;SDS011;226;48.606;9.096;2023-05-29T11:55:47;7.63;;;2.93;;
479;SDS011;226;48.606;9.096;2023-05-29T11:58:16;7.80;;;3.60;;
479;SDS011;226;48.606;9.096;2023-05-29T12:00:44;4.53;;;3.17;;
479;SDS011;226;48.606;9.096;2023-05-29T12:03:18;4.60;;;2.77;;
479;SDS011;226;48.606;9.096;2023-05-29T12:05:47;5.17;;;3.23;;
479;SDS011;226;48.606;9.096;2023-05-29T12:08:20;3.93;;;3.00;;
479;SDS011;226;48.606;9.096;2023-05-29T12:10:50;3.70;;;2.40;;
479;SDS011;226;48.606;9.096;2023-05-29T12:13:19;8.60;;;3.70;;
479;SDS011;226;48.606;9.096;2023-05-29T12:15:48;5.50;;;3.10;;
479;SDS011;226;48.606;9.096;2023-05-29T12:18:22;8.03;;;2.80;;
479;SDS011;226;48.606;9.096;2023-05-29T12:20:50;6.00;;;3.00;;
479;SDS011;226;48.606;9.096;2023-05-29T12:23:23;6.83;;;3.20;;
479;SDS011;226;48.606;9.096;2023-05-29T12:25:52;4.70;;;3.10;;
479;SDS011;226;48.606;9.096;2023-05-29T12:28:21;5.23;;;2.80;;
479;SDS011;226;48.606;9.096;2023-05-29T12:30:50;4.07;;;2.73;;
479;SDS011;226;48.606;9.096;2023-05-29T12:33:26;5.97;;;2.77;;
479;SDS011;226;48.606;9.096;2023-05-29T12:36:00;3.07;;;2.47;;
479;SDS011;226;48.606;9.096;2023-05-29T12:38:29;4.93;;;2.60;;
479;SDS011;226;48.606;9.096;2023-05-29T12:40:57;7.20;;;2.60;;
479;SDS011;226;48.606;9.096;2023-05-29T12:43:26;4.33;;;2.67;;
479;SDS011;226;48.606;9.096;2023-05-29T12:45:55;4.23;;;2.50;;
479;SDS011;226;48.606;9.096;2023-05-29T12:48:27;2.53;;;2.10;;
479;SDS011;226;48.606;9.096;2023-05-29T12:50:56;1.87;;;1.77;;
479;SDS011;226;48.606;9.096;2023-05-29T12:53:27;4.67;;;2.70;;
479;SDS011;226;48.606;9.096;2023-05-29T12:55:59;3.57;;;2.20;;
479;SDS011;226;48.606;9.096;2023-05-29T12:58:31;3.47;;;2.43;;
479;SDS011;226;48.606;9.096;2023-05-29T13:01:03;4.97;;;2.63;;
479;SDS011;226;48.606;9.096;2023-05-29T13:03:36;5.30;;;2.50;;
479;SDS011;226;48.606;9.096;2023-05-29T13:06:08;6.40;;;3.07;;
479;SDS011;226;48.606;9.096;2023-05-29T13:08:39;3.60;;;2.27;;
479;SDS011;226;48.606;9.096;2023-05-29T13:11:10;7.50;;;2.93;;
479;SDS011;226;48.606;9.096;2023-05-29T13:13:38;4.13;;;2.60;;
479;SDS011;226;48.606;9.096;2023-05-29T13:16:07;4.67;;;2.20;;
479;SDS011;226;48.606;9.096;2023-05-29T13:18:37;3.33;;;2.30;;
479;SDS011;226;48.606;9.096;2023-05-29T13:21:05;3.57;;;2.27;;
479;SDS011;226;48.606;9.096;2023-05-29T13:23:34;2.57;;;2.20;;
479;SDS011;226;48.606;9.096;2023-05-29T13:26:03;6.63;;;2.60;;
479;SDS011;226;48.606;9.096;2023-05-29T13:28:31;2.30;;;2.10;;
479;SDS011;226;48.606;9.096;2023-05-29T13:31:00;4.80;;;2.97;;
479;SDS011;226;48.606;9.096;2023-05-29T13:33:28;3.67;;;2.30;;
479;SDS011;226;48.606;9.096;2023-05-29T13:35:58;5.97;;;2.83;;
479;SDS011;226;48.606;9.096;2023-05-29T13:38:27;4.43;;;1.83;;
479;SDS011;226;48.606;9.096;2023-05-29T13:40:55;3.80;;;2.33;;
479;SDS011;226;48.606;9.096;2023-05-29T13:43:24;3.37;;;2.60;;
479;SDS011;226;48.606;9.096;2023-05-29T13:46:08;5.03;;;2.47;;
479;SDS011;226;48.606;9.096;2023-05-29T13:48:36;6.30;;;2.63;;
479;SDS011;226;48.606;9.096;2023-05-29T13:51:06;4.30;;;2.20;;
479;SDS011;226;48.606;9.096;2023-05-29T13:53:34;3.20;;;1.90;;
479;SDS011;226;48.606;9.096;2023-05-29T13:56:03;2.80;;;2.23;;
479;SDS011;226;48.606;9.096;2023-05-29T13:58:31;4.77;;;2.90;;
479;SDS011;226;48.606;9.096;2023-05-29T14:01:00;6.90;;;2.73;;
479;SDS011;226;48.606;9.096;2023-05-29T14:03:28;4.30;;;2.27;;
479;SDS011;226;48.606;9.096;2023-05-29T14:05:58;7.47;;;2.30;;
479;SDS011;226;48.606;9.096;2023-05-29T14:08:27;2.90;;;2.47;;
479;SDS011;226;48.606;9.096;2023-05-29T14:10:56;4.90;;;2.50;;
479;SDS011;226;48.606;9.096;2023-05-29T14:13:24;3.60;;;2.40;;
479;SDS011;226;48.606;9.096;2023-05-29T14:15:53;3.00;;;2.13;;
479;SDS011;226;48.606;9.096;2023-05-29T14:18:23;2.53;;;2.07;;
479;SDS011;226;48.606;9.096;2023-05-29T14:20:52;2.80;;;2.37;;
479;SDS011;226;48.606;9.096;2023-05-29T14:23:20;4.43;;;2.07;;
479;SDS011;226;48.606;9.096;2023-05-29T14:25:50;2.10;;;1.90;;
479;SDS011;226;48.606;9.096;2023-05-29T14:28:19;2.70;;;2.13;;
479;SDS011;226;48.606;9.096;2023-05-29T14:30:48;2.40;;;2.10;;
479;SDS011;226;48.606;9.096;2023-05-29T14:33:16;3.07;;;2.53;;
479;SDS011;226;48.606;9.096;2023-05-29T14:35:45;2.50;;;2.13;;
479;SDS011;226;48.606;9.096;2023-05-29T14:38:13;2.90;;;2.00;;
479;SDS011;226;48.606;9.096;2023-05-29T14:40:42;5.13;;;2.33;;
479;SDS011;226;48.606;9.096;2023-05-29T14:43:18;3.93;;;2.10;;
479;SDS011;226;48.606;9.096;2023-05-29T14:45:46;5.23;;;2.40;;
479;SDS011;226;48.606;9.096;2023-05-29T14:48:14;5.33;;;2.30;;
479;SDS011;226;48.606;9.096;2023-05-29T14:50:43;4.40;;;2.17;;
479;SDS011;226;48.606;9.096;2023-05-29T14:53:11;3.20;;;2.43;;
479;SDS011;226;48.606;9.096;2023-05-29T14:55:39;4.57;;;2.30;;
479;SDS011;226;48.606;9.096;2023-05-29T14:58:08;4.27;;;2.60;;
479;SDS011;226;48.606;9.096;2023-05-29T15:00:37;5.40;;;2.40;;
479;SDS011;226;48.606;9.096;2023-05-29T15:03:05;4.50;;;2.60;;
479;SDS011;226;48.606;9.096;2023-05-29T15:05:34;3.77;;;2.53;;
479;SDS011;226;48.606;9.096;2023-05-29T15:08:02;3.80;;;2.40;;
479;SDS011;226;48.606;9.096;2023-05-29T15:10:31;3.40;;;2.63;;
479;SDS011;226;48.606;9.096;2023-05-29T15:12:59;4.97;;;2.60;;
479;SDS011;226;48.606;9.096;2023-05-29T15:15:30;3.80;;;2.20;;
479;SDS011;226;48.606;9.096;2023-05-29T15:18:14;4.30;;;2.67;;
479;SDS011;226;48.606;9.096;2023-05-29T15:20:42;3.80;;;2.60;;
479;SDS011;226;48.606;9.096;2023-05-29T15:23:11;3.00;;;2.50;;
479;SDS011;226;48.606;9.096;2023-05-29T15:25:39;2.77;;;2.33;;
479;SDS011;226;48.606;9.096;2023-05-29T15:28:07;5.57;;;3.17;;
479;SDS011;226;48.606;9.096;2023-05-29T15:30:36;2.77;;;2.57;;
479;SDS011;226;48.606;9.096;2023-05-29T15:33:04;4.63;;;2.73;;
479;SDS011;226;48.606;9.096;2023-05-29T15:35:37;3.70;;;2.50;;
479;SDS011;226;48.606;9.096;2023-05-29T15:38:07;3.90;;;2.00;;
479;SDS011;226;48.606;9.096;2023-05-29T15:40:36;3.23;;;2.87;;
479;SDS011;226;48.606;9.096;2023-05-29T15:43:04;3.93;;;2.33;;
479;SDS011;226;48.606;9.096;2023-05-29T15:45:32;3.73;;;2.07;;
479;SDS011;226;48.606;9.096;2023-05-29T15:48:00;3.47;;;2.20;;
479;SDS011;226;48.606;9.096;2023-05-29T15:50:29;3.60;;;2.60;;
479;SDS011;226;48.606;9.096;2023-05-29T15:52:58;2.10;;;1.90;;
479;SDS011;226;48.606;9.096;2023-05-29T15:55:27;4.30;;;2.53;;
479;SDS011;226;48.606;9.096;2023-05-29T15:57:55;3.20;;;2.13;;
479;SDS011;226;48.606;9.096;2023-05-29T16:00:23;2.90;;;2.00;;
479;SDS011;226;48.606;9.096;2023-05-29T16:02:51;2.60;;;2.40;;
479;SDS011;226;48.606;9.096;2023-05-29T16:05:20;5.40;;;2.87;;
479;SDS011;226;48.606;9.096;2023-05-29T16:07:48;4.47;;;2.77;;
479;SDS011;226;48.606;9.096;2023-05-29T16:10:18;3.50;;;1.73;;
479;SDS011;226;48.606;9.096;2023-05-29T16:12:47;3.53;;;3.00;;
479;SDS011;226;48.606;9.096;2023-05-29T16:15:16;3.90;;;2.23;;
479;SDS011;226;48.606;9.096;2023-05-29T16:17:46;4.83;;;2.57;;
479;SDS011;226;48.606;9.096;2023-05-29T16:20:14;1.90;;;1.80;;
479;SDS011;226;48.606;9.096;2023-05-29T16:22:43;5.80;;;2.37;;
479;SDS011;226;48.606;9.096;2023-05-29T16:25:11;2.53;;;2.00;;